Elba, Idaho
Current Conditions -  °F | °C
As of 9:53 PM on Friday 24 Oct 2014 (Local Time) from KBYI Reporting Station
Clear Clear  
Wind Chill: 13°   Ceiling: Unl
Heat Index: 13°   Visibility: 10mi
Dew Point: -1°   Wind: 7mph
Humidity: 40%   Direction: 210°SSW
Pressure: 30.01"   Gusts: NA
Location:  42.25°N, 113.56°W
Report Text: KBYI 250353Z AUTO 21006KT 10SM CLR 13/M01 A3001 RMK AO2 SLP143 T01281006
Loading
Personal Weather Stations






























Interactive Weather Map
Tropical Storm Tracking
New forecast layout! Learn more

10-Day Weather Forecast

Advertisements
Track Severe Weather on mobile